Aviation Digital Data Service (ADDS)

Output produced by METARs form (1851 UTC 18 April 2019)
found at http://www.aviationweather.gov/metar/data/
 
Forecast for: OJAI (QUEEN ALIA INTL , JO)
Text: TAF OJAI 181700Z 1818/1924 30014KT 6000 SCT030
Forecast period: 1800 UTC 18 April 2019 to 0000 UTC 20 April 2019
Forecast type: FROM: standard forecast or significant change
Winds: from the WNW (300 degrees) at 16 MPH (14 knots; 7.2 m/s)
Visibility: 4 miles (6 km)
Ceiling: at least 12,000 feet AGL
Clouds: scattered clouds at 3000 feet AGL
Weather: no significant weather forecast for this period
Text: PROB30 1903/1906 3000 BR
Forecast period: 0300 to 0600 UTC 19 April 2019
Forecast type: PROBABLE: 30 percent likelihood of the following during this time
Visibility: 1.86 miles (2.99 km)
Ceiling: unknown
Clouds: missing
Weather: BR  (mist)
Text: TEMPO 1908/1916 27018KT 4000 BLDU
Forecast period: 0800 to 1600 UTC 19 April 2019
Forecast type: TEMPORARY: The following changes expected for less than half the time period
Winds: from the W (270 degrees) at 21 MPH (18 knots; 9.3 m/s)
Visibility: 2.49 miles (4.01 km)
Ceiling: unknown
Clouds: missing
Weather: BLDU  (blowing dust)
Text: PROB30 1906/1918 -SHRA
Forecast period: 0600 to 1800 UTC 19 April 2019
Forecast type: PROBABLE: 30 percent likelihood of the following during this time
Visibility: missing
Ceiling: unknown
Clouds: missing
Weather: -SHRA  (light rain showers)